Seabrook, NH (03874)

8:18 AM EDT on July 23, 2016 (GMT -0400)
Hampton Falls River Estuary | | Change Station

Elev 33 ft 42.91 °N, 70.86 °W | Updated 6 seconds ago

Partly Cloudy
Partly Cloudy
78.4 °F
Feels Like 78 °F
N
1.8
Wind Variable Wind from WSW
Gusts 2.5 mph

Today
High -- | Low -- °F
--% Chance of Precip.
Yesterday
High -- | Low -- °F
Precip. -- in
Pressure 29.75 in
Visibility 10.0 miles
Clouds Few 12000 ft
Few 20000 ft
Heat Index 78 °F
Dew Point 33 °F
Humidity 19%
Rainfall 0.00 in
Snow Depth Not available.
5:25 AM 8:13 PM
Waning Gibbous, 85% visible
METAR KPSM 231158Z 28004KT 10SM FEW120 FEW200 25/17 A2974 RMK AO2A SLP072 T02460174 10246 20201 52009
Pressure 29.75 in
Visibility 10.0 miles
Clouds Few 12000 ft
Few 20000 ft
Heat Index 78 °F
Dew Point 33 °F
Humidity 19%
Rainfall 0.00 in
Snow Depth Not available.
5:25 AM 8:13 PM
Waning Gibbous, 85% visible
METAR KPSM 231158Z 28004KT 10SM FEW120 FEW200 25/17 A2974 RMK AO2A SLP072 T02460174 10246 20201 52009

10-Day Weather Forecast

Almanac

Astronomy

Jul. 23, 2016 Rise Set
Actual Time
Civil Twilight
Nautical Twilight
Astronomical Twilight
Moon
Length of Visible Light
Length of Day
Tomorrow will be .
, % of the Moon is Illuminated

Today's Extremes

State Highs State Lows

Community

WunderPhotos

Upload Photos

1,926,811 photos uploaded!

WunderBlog® & News

Nearby

Air Quality

  Air Quality AQ Index Pollutant
Not available.

Snow Depth

Station Depth Elevation

Earthquake Activity

City Distance Mag. Time & Date
Minimum magnitude displayed is 2.5.

Coastal Water Temperatures

Place Temperature

Stations

Nearby Weather Stations

Station Location Temp. Windchill Dew Point Humidity Wind Precip. Elev Updated Type
                   

Watches & Warnings

There are currently no watches in effect.